Time;durP1;ratioP1;P1;durP2;ratioP2;P2;SDS_P1;SDS_P2;PMS_P1;PMS_P2;Temp;Humidity;BMP_temperature;BMP_pressure;BME280_temperature;BME280_humidity;BME280_pressure;Samples;Min_cycle;Max_cycle;Signal;HPM_P1;HPM_P2
2021/03/06 00:00:24;;;;;;;9.85;6.5;;;;;;;-1.38;100;96317.5;;;;
2021/03/06 00:01:25;;;;;;;9.85;6.5;;;;;;;-1.38;100;96317.5;;;;
2021/03/06 00:02:25;;;;;;;9.85;6.5;;;;;;;-1.38;100;96317.5;;;;
2021/03/06 00:03:26;;;;;;;9.85;6.5;;;;;;;-1.38;100;96317.5;;;;
2021/03/06 00:04:27;;;;;;;11.3;6.849999;;;;;;;-1.26;100;96318.55;;;;
2021/03/06 00:05:27;;;;;;;11.3;6.849999;;;;;;;-1.26;100;96318.55;;;;
2021/03/06 00:06:28;;;;;;;11.3;6.849999;;;;;;;-1.26;100;96318.55;;;;
2021/03/06 00:07:29;;;;;;;11.3;6.849999;;;;;;;-1.26;100;96318.55;;;;
2021/03/06 00:08:29;;;;;;;11.3;6.849999;;;;;;;-1.26;100;96318.55;;;;
2021/03/06 00:09:30;;;;;;;11.3;6.849999;;;;;;;-1.26;100;96318.55;;;;
2021/03/06 00:10:30;;;;;;;11.3;6.849999;;;;;;;-1.26;100;96318.55;;;;
2021/03/06 00:11:31;;;;;;;11.3;6.849999;;;;;;;-1.26;100;96318.55;;;;
2021/03/06 00:12:32;;;;;;;11.3;6.849999;;;;;;;-1.26;100;96318.55;;;;
2021/03/06 00:13:32;;;;;;;11.3;6.849999;;;;;;;-1.26;100;96318.55;;;;
2021/03/06 00:14:34;;;;;;;11.3;6.849999;;;;;;;-1.26;100;96318.55;;;;
2021/03/06 00:15:35;;;;;;;9.900002;6.9;;;;;;;-1.03;100;96315.58;;;;
2021/03/06 00:16:35;;;;;;;9.900002;6.9;;;;;;;-1.03;100;96315.58;;;;
2021/03/06 00:17:36;;;;;;;9.900002;6.9;;;;;;;-1.03;100;96315.58;;;;
2021/03/06 00:18:37;;;;;;;9.900002;6.9;;;;;;;-1.03;100;96315.58;;;;
2021/03/06 00:19:38;;;;;;;9.900002;6.9;;;;;;;-1.03;100;96315.58;;;;
2021/03/06 00:20:38;;;;;;;9.900002;6.9;;;;;;;-1.03;100;96315.58;;;;
2021/03/06 00:21:39;;;;;;;9.900002;6.9;;;;;;;-1.03;100;96315.58;;;;
2021/03/06 00:22:40;;;;;;;9.900002;6.9;;;;;;;-1.03;100;96315.58;;;;
2021/03/06 00:23:40;;;;;;;9.900002;6.9;;;;;;;-1.03;100;96315.58;;;;
2021/03/06 00:24:41;;;;;;;9.900002;6.9;;;;;;;-1.03;100;96315.58;;;;
2021/03/06 00:25:42;;;;;;;9.900002;6.9;;;;;;;-1.03;100;96315.58;;;;
2021/03/06 00:26:42;;;;;;;10.65;6.7;;;;;;;-0.96;99.82813;96316.27;;;;
2021/03/06 00:27:43;;;;;;;10.65;6.7;;;;;;;-0.96;99.82813;96316.27;;;;
2021/03/06 00:28:43;;;;;;;10.65;6.7;;;;;;;-0.96;99.82813;96316.27;;;;
2021/03/06 00:29:44;;;;;;;10.65;6.7;;;;;;;-0.96;99.82813;96316.27;;;;
2021/03/06 00:30:45;;;;;;;10.65;6.7;;;;;;;-0.96;99.82813;96316.27;;;;
2021/03/06 00:31:45;;;;;;;10.65;6.7;;;;;;;-0.96;99.82813;96316.27;;;;
2021/03/06 00:32:46;;;;;;;10.65;6.7;;;;;;;-0.96;99.82813;96316.27;;;;
2021/03/06 00:33:46;;;;;;;10.65;6.7;;;;;;;-0.96;99.82813;96316.27;;;;
2021/03/06 00:34:47;;;;;;;10.65;6.7;;;;;;;-0.96;99.82813;96316.27;;;;
2021/03/06 00:35:47;;;;;;;10.65;6.7;;;;;;;-0.96;99.82813;96316.27;;;;
2021/03/06 00:36:48;;;;;;;9.949999;6.849999;;;;;;;-1.05;99.75391;96311.81;;;;
2021/03/06 00:37:48;;;;;;;9.949999;6.849999;;;;;;;-1.05;99.75391;96311.81;;;;
2021/03/06 00:38:49;;;;;;;9.949999;6.849999;;;;;;;-1.05;99.75391;96311.81;;;;
2021/03/06 00:39:49;;;;;;;9.949999;6.849999;;;;;;;-1.05;99.75391;96311.81;;;;
2021/03/06 00:40:50;;;;;;;9.949999;6.849999;;;;;;;-1.05;99.75391;96311.81;;;;
2021/03/06 00:41:50;;;;;;;9.949999;6.849999;;;;;;;-1.05;99.75391;96311.81;;;;
2021/03/06 00:42:51;;;;;;;9.949999;6.849999;;;;;;;-1.05;99.75391;96311.81;;;;
2021/03/06 00:43:51;;;;;;;9.949999;6.849999;;;;;;;-1.05;99.75391;96311.81;;;;
2021/03/06 00:44:52;;;;;;;9.949999;6.849999;;;;;;;-1.05;99.75391;96311.81;;;;
2021/03/06 00:45:52;;;;;;;9.949999;6.849999;;;;;;;-1.05;99.75391;96311.81;;;;
2021/03/06 00:46:53;;;;;;;9.949999;6.849999;;;;;;;-1.05;99.75391;96311.81;;;;
2021/03/06 00:47:54;;;;;;;10.7;7.2;;;;;;;-1.26;99.72852;96323.85;;;;
2021/03/06 00:48:54;;;;;;;10.7;7.2;;;;;;;-1.26;99.72852;96323.85;;;;
2021/03/06 00:49:55;;;;;;;10.7;7.2;;;;;;;-1.26;99.72852;96323.85;;;;
2021/03/06 00:50:55;;;;;;;10.7;7.2;;;;;;;-1.26;99.72852;96323.85;;;;
2021/03/06 00:51:56;;;;;;;10.7;7.2;;;;;;;-1.26;99.72852;96323.85;;;;
2021/03/06 00:52:56;;;;;;;10.7;7.2;;;;;;;-1.26;99.72852;96323.85;;;;
2021/03/06 00:53:57;;;;;;;10.7;7.2;;;;;;;-1.26;99.72852;96323.85;;;;
2021/03/06 00:54:57;;;;;;;10.7;7.2;;;;;;;-1.26;99.72852;96323.85;;;;
2021/03/06 00:55:58;;;;;;;10.7;7.2;;;;;;;-1.26;99.72852;96323.85;;;;
2021/03/06 00:56:59;;;;;;;10.7;7.2;;;;;;;-1.26;99.72852;96323.85;;;;
2021/03/06 00:57:59;;;;;;;10;6.849999;;;;;;;-1.38;100;96325.02;;;;
2021/03/06 00:59:00;;;;;;;10;6.849999;;;;;;;-1.38;100;96325.02;;;;
2021/03/06 01:00:00;;;;;;;10;6.849999;;;;;;;-1.38;100;96325.02;;;;
2021/03/06 01:01:01;;;;;;;10;6.849999;;;;;;;-1.38;100;96325.02;;;;
2021/03/06 01:02:04;;;;;;;10;6.849999;;;;;;;-1.38;100;96325.02;;;;
2021/03/06 01:03:05;;;;;;;10;6.849999;;;;;;;-1.38;100;96325.02;;;;
2021/03/06 01:04:06;;;;;;;10;6.849999;;;;;;;-1.38;100;96325.02;;;;
2021/03/06 01:05:06;;;;;;;10;6.849999;;;;;;;-1.38;100;96325.02;;;;
2021/03/06 01:06:08;;;;;;;10;6.849999;;;;;;;-1.38;100;96325.02;;;;
2021/03/06 01:07:08;;;;;;;10;6.849999;;;;;;;-1.38;100;96325.02;;;;
2021/03/06 01:08:09;;;;;;;10;6.849999;;;;;;;-1.38;100;96325.02;;;;
2021/03/06 01:09:10;;;;;;;10.85;6.900001;;;;;;;-1.3;100;96322.96;;;;
2021/03/06 01:10:10;;;;;;;10.85;6.900001;;;;;;;-1.3;100;96322.96;;;;
2021/03/06 01:11:14;;;;;;;10.85;6.900001;;;;;;;-1.3;100;96322.96;;;;
2021/03/06 01:12:15;;;;;;;10.85;6.900001;;;;;;;-1.3;100;96322.96;;;;
2021/03/06 01:13:16;;;;;;;10.85;6.900001;;;;;;;-1.3;100;96322.96;;;;
2021/03/06 01:14:17;;;;;;;10.85;6.900001;;;;;;;-1.3;100;96322.96;;;;
2021/03/06 01:15:17;;;;;;;10.85;6.900001;;;;;;;-1.3;100;96322.96;;;;
2021/03/06 01:16:18;;;;;;;10.85;6.900001;;;;;;;-1.3;100;96322.96;;;;
2021/03/06 01:17:20;;;;;;;10.85;6.900001;;;;;;;-1.3;100;96322.96;;;;
2021/03/06 01:18:20;;;;;;;10.85;6.900001;;;;;;;-1.3;100;96322.96;;;;
2021/03/06 01:19:21;;;;;;;12.4;6.55;;;;;;;-1.19;99.88867;96313.56;;;;
2021/03/06 01:20:22;;;;;;;12.4;6.55;;;;;;;-1.19;99.88867;96313.56;;;;
2021/03/06 01:21:23;;;;;;;12.4;6.55;;;;;;;-1.19;99.88867;96313.56;;;;
2021/03/06 01:22:24;;;;;;;12.4;6.55;;;;;;;-1.19;99.88867;96313.56;;;;
2021/03/06 01:23:24;;;;;;;12.4;6.55;;;;;;;-1.19;99.88867;96313.56;;;;
2021/03/06 01:24:25;;;;;;;12.4;6.55;;;;;;;-1.19;99.88867;96313.56;;;;
2021/03/06 01:25:25;;;;;;;12.4;6.55;;;;;;;-1.19;99.88867;96313.56;;;;
2021/03/06 01:26:26;;;;;;;12.4;6.55;;;;;;;-1.19;99.88867;96313.56;;;;
2021/03/06 01:27:27;;;;;;;12.4;6.55;;;;;;;-1.19;99.88867;96313.56;;;;
2021/03/06 01:28:28;;;;;;;12.4;6.55;;;;;;;-1.19;99.88867;96313.56;;;;
2021/03/06 01:29:29;;;;;;;12.4;6.55;;;;;;;-1.19;99.88867;96313.56;;;;
2021/03/06 01:30:29;;;;;;;10.95;6.45;;;;;;;-1.22;99.84082;96304.06;;;;
2021/03/06 01:31:30;;;;;;;10.95;6.45;;;;;;;-1.22;99.84082;96304.06;;;;
2021/03/06 01:32:30;;;;;;;10.95;6.45;;;;;;;-1.22;99.84082;96304.06;;;;
2021/03/06 01:33:31;;;;;;;10.95;6.45;;;;;;;-1.22;99.84082;96304.06;;;;
2021/03/06 01:34:31;;;;;;;10.95;6.45;;;;;;;-1.22;99.84082;96304.06;;;;
2021/03/06 01:35:32;;;;;;;10.95;6.45;;;;;;;-1.22;99.84082;96304.06;;;;
2021/03/06 01:36:33;;;;;;;10.95;6.45;;;;;;;-1.22;99.84082;96304.06;;;;
2021/03/06 01:37:33;;;;;;;10.95;6.45;;;;;;;-1.22;99.84082;96304.06;;;;
2021/03/06 01:38:34;;;;;;;10.95;6.45;;;;;;;-1.22;99.84082;96304.06;;;;
2021/03/06 01:39:34;;;;;;;10.95;6.45;;;;;;;-1.22;99.84082;96304.06;;;;
2021/03/06 01:40:35;;;;;;;10.95;6.45;;;;;;;-1.22;99.84082;96304.06;;;;
2021/03/06 01:41:37;;;;;;;9.4;6.6;;;;;;;-1.27;99.79883;96295.7;;;;
2021/03/06 01:42:37;;;;;;;9.4;6.6;;;;;;;-1.27;99.79883;96295.7;;;;
2021/03/06 01:43:38;;;;;;;9.4;6.6;;;;;;;-1.27;99.79883;96295.7;;;;
2021/03/06 01:44:39;;;;;;;9.4;6.6;;;;;;;-1.27;99.79883;96295.7;;;;
2021/03/06 01:45:39;;;;;;;9.4;6.6;;;;;;;-1.27;99.79883;96295.7;;;;
2021/03/06 01:46:40;;;;;;;9.4;6.6;;;;;;;-1.27;99.79883;96295.7;;;;
2021/03/06 01:47:41;;;;;;;9.4;6.6;;;;;;;-1.27;99.79883;96295.7;;;;
2021/03/06 01:48:42;;;;;;;9.4;6.6;;;;;;;-1.27;99.79883;96295.7;;;;
2021/03/06 01:49:42;;;;;;;9.4;6.6;;;;;;;-1.27;99.79883;96295.7;;;;
2021/03/06 01:50:43;;;;;;;9.4;6.6;;;;;;;-1.27;99.79883;96295.7;;;;
2021/03/06 01:51:45;;;;;;;11.05;6.900001;;;;;;;-1.36;99.91113;96287.27;;;;
2021/03/06 01:52:46;;;;;;;11.05;6.900001;;;;;;;-1.36;99.91113;96287.27;;;;
2021/03/06 01:53:46;;;;;;;11.05;6.900001;;;;;;;-1.36;99.91113;96287.27;;;;
2021/03/06 01:54:47;;;;;;;11.05;6.900001;;;;;;;-1.36;99.91113;96287.27;;;;
2021/03/06 01:55:48;;;;;;;11.05;6.900001;;;;;;;-1.36;99.91113;96287.27;;;;
2021/03/06 01:56:49;;;;;;;11.05;6.900001;;;;;;;-1.36;99.91113;96287.27;;;;
2021/03/06 01:57:51;;;;;;;11.05;6.900001;;;;;;;-1.36;99.91113;96287.27;;;;
2021/03/06 01:58:53;;;;;;;11.05;6.900001;;;;;;;-1.36;99.91113;96287.27;;;;
2021/03/06 01:59:53;;;;;;;11.05;6.900001;;;;;;;-1.36;99.91113;96287.27;;;;
2021/03/06 02:00:54;;;;;;;11.05;6.900001;;;;;;;-1.36;99.91113;96287.27;;;;
2021/03/06 02:01:54;;;;;;;11.05;6.900001;;;;;;;-1.36;99.91113;96287.27;;;;
2021/03/06 02:02:55;;;;;;;11.85;7.1;;;;;;;-1.42;99.94727;96279.96;;;;
2021/03/06 02:03:56;;;;;;;11.85;7.1;;;;;;;-1.42;99.94727;96279.96;;;;
2021/03/06 02:04:58;;;;;;;11.85;7.1;;;;;;;-1.42;99.94727;96279.96;;;;
2021/03/06 02:05:59;;;;;;;11.85;7.1;;;;;;;-1.42;99.94727;96279.96;;;;
2021/03/06 02:06:59;;;;;;;11.85;7.1;;;;;;;-1.42;99.94727;96279.96;;;;
2021/03/06 02:08:01;;;;;;;11.85;7.1;;;;;;;-1.42;99.94727;96279.96;;;;
2021/03/06 02:09:03;;;;;;;11.85;7.1;;;;;;;-1.42;99.94727;96279.96;;;;
2021/03/06 02:10:04;;;;;;;11.85;7.1;;;;;;;-1.42;99.94727;96279.96;;;;
2021/03/06 02:11:06;;;;;;;11.85;7.1;;;;;;;-1.42;99.94727;96279.96;;;;
2021/03/06 02:12:06;;;;;;;11.85;7.1;;;;;;;-1.42;99.94727;96279.96;;;;
2021/03/06 02:13:18;;;;;;;14.5;7;;;;;;;-1.35;100;96279.74;;;;
2021/03/06 02:14:32;;;;;;;14.5;7;;;;;;;-1.35;100;96279.74;;;;
2021/03/06 02:15:51;;;;;;;14.5;7;;;;;;;-1.35;100;96279.74;;;;
2021/03/06 02:17:03;;;;;;;14.5;7;;;;;;;-1.35;100;96279.74;;;;
2021/03/06 02:18:09;;;;;;;14.5;7;;;;;;;-1.35;100;96279.74;;;;
2021/03/06 02:19:14;;;;;;;14.5;7;;;;;;;-1.35;100;96279.74;;;;
2021/03/06 02:20:38;;;;;;;14.5;7;;;;;;;-1.35;100;96279.74;;;;
2021/03/06 02:21:45;;;;;;;14.5;7;;;;;;;-1.35;100;96279.74;;;;
2021/03/06 02:22:57;;;;;;;14.5;7;;;;;;;-1.35;100;96279.74;;;;
2021/03/06 02:24:13;;;;;;;11.3;7.000001;;;;;;;-1.41;99.8252;96278.96;;;;
2021/03/06 02:25:58;;;;;;;11.3;7.000001;;;;;;;-1.41;99.8252;96278.96;;;;
2021/03/06 02:27:10;;;;;;;11.3;7.000001;;;;;;;-1.41;99.8252;96278.96;;;;
2021/03/06 02:28:17;;;;;;;11.3;7.000001;;;;;;;-1.41;99.8252;96278.96;;;;
2021/03/06 02:29:27;;;;;;;11.3;7.000001;;;;;;;-1.41;99.8252;96278.96;;;;
2021/03/06 02:30:38;;;;;;;11.3;7.000001;;;;;;;-1.41;99.8252;96278.96;;;;
2021/03/06 02:31:39;;;;;;;11.3;7.000001;;;;;;;-1.41;99.8252;96278.96;;;;
2021/03/06 02:32:42;;;;;;;11.3;7.000001;;;;;;;-1.41;99.8252;96278.96;;;;
2021/03/06 02:33:45;;;;;;;11.3;7.000001;;;;;;;-1.41;99.8252;96278.96;;;;
2021/03/06 02:34:52;;;;;;;12.35;7.150001;;;;;;;-1.76;99.81836;96283.86;;;;
2021/03/06 02:36:05;;;;;;;12.35;7.150001;;;;;;;-1.76;99.81836;96283.86;;;;
2021/03/06 02:37:11;;;;;;;12.35;7.150001;;;;;;;-1.76;99.81836;96283.86;;;;
2021/03/06 02:38:15;;;;;;;12.35;7.150001;;;;;;;-1.76;99.81836;96283.86;;;;
2021/03/06 02:39:16;;;;;;;12.35;7.150001;;;;;;;-1.76;99.81836;96283.86;;;;
2021/03/06 02:40:19;;;;;;;12.35;7.150001;;;;;;;-1.76;99.81836;96283.86;;;;
2021/03/06 02:41:21;;;;;;;12.35;7.150001;;;;;;;-1.76;99.81836;96283.86;;;;
2021/03/06 02:42:24;;;;;;;12.35;7.150001;;;;;;;-1.76;99.81836;96283.86;;;;
2021/03/06 02:43:28;;;;;;;12.35;7.150001;;;;;;;-1.76;99.81836;96283.86;;;;
2021/03/06 02:44:29;;;;;;;12.35;7.150001;;;;;;;-1.76;99.81836;96283.86;;;;
2021/03/06 02:45:33;;;;;;;13.15;7.5;;;;;;;-1.88;100;96270.83;;;;
2021/03/06 02:46:36;;;;;;;13.15;7.5;;;;;;;-1.88;100;96270.83;;;;
2021/03/06 02:47:36;;;;;;;13.15;7.5;;;;;;;-1.88;100;96270.83;;;;
2021/03/06 02:48:37;;;;;;;13.15;7.5;;;;;;;-1.88;100;96270.83;;;;
2021/03/06 02:49:38;;;;;;;13.15;7.5;;;;;;;-1.88;100;96270.83;;;;
2021/03/06 02:50:38;;;;;;;13.15;7.5;;;;;;;-1.88;100;96270.83;;;;
2021/03/06 02:51:39;;;;;;;13.15;7.5;;;;;;;-1.88;100;96270.83;;;;
2021/03/06 02:52:41;;;;;;;13.15;7.5;;;;;;;-1.88;100;96270.83;;;;
2021/03/06 02:53:42;;;;;;;13.15;7.5;;;;;;;-1.88;100;96270.83;;;;
2021/03/06 02:54:42;;;;;;;13.15;7.5;;;;;;;-1.88;100;96270.83;;;;
2021/03/06 02:55:43;;;;;;;11.95;7.050001;;;;;;;-1.94;100;96266.16;;;;
2021/03/06 02:56:43;;;;;;;11.95;7.050001;;;;;;;-1.94;100;96266.16;;;;
2021/03/06 02:57:44;;;;;;;11.95;7.050001;;;;;;;-1.94;100;96266.16;;;;
2021/03/06 02:59:23;;;;;;;11.95;7.050001;;;;;;;-1.94;100;96266.16;;;;
2021/03/06 03:00:38;;;;;;;11.95;7.050001;;;;;;;-1.94;100;96266.16;;;;
2021/03/06 03:01:42;;;;;;;11.95;7.050001;;;;;;;-1.94;100;96266.16;;;;
2021/03/06 03:02:49;;;;;;;11.95;7.050001;;;;;;;-1.94;100;96266.16;;;;
2021/03/06 03:03:58;;;;;;;11.95;7.050001;;;;;;;-1.94;100;96266.16;;;;
2021/03/06 03:05:04;;;;;;;11.95;7.050001;;;;;;;-1.94;100;96266.16;;;;
2021/03/06 03:06:15;;;;;;;12.35;6.849999;;;;;;;-1.93;100;96272.2;;;;
2021/03/06 03:07:22;;;;;;;12.35;6.849999;;;;;;;-1.93;100;96272.2;;;;
2021/03/06 03:08:30;;;;;;;12.35;6.849999;;;;;;;-1.93;100;96272.2;;;;
2021/03/06 03:09:36;;;;;;;12.35;6.849999;;;;;;;-1.93;100;96272.2;;;;
2021/03/06 03:10:42;;;;;;;12.35;6.849999;;;;;;;-1.93;100;96272.2;;;;
2021/03/06 03:11:54;;;;;;;12.35;6.849999;;;;;;;-1.93;100;96272.2;;;;
2021/03/06 03:13:00;;;;;;;12.35;6.849999;;;;;;;-1.93;100;96272.2;;;;
2021/03/06 03:14:09;;;;;;;12.35;6.849999;;;;;;;-1.93;100;96272.2;;;;
2021/03/06 03:15:15;;;;;;;12.35;6.849999;;;;;;;-1.93;100;96272.2;;;;
2021/03/06 03:16:19;;;;;;;12.35;6.849999;;;;;;;-1.93;100;96272.2;;;;
2021/03/06 03:17:22;;;;;;;15.25;7.7;;;;;;;-2.09;100;96280.25;;;;
2021/03/06 03:18:27;;;;;;;15.25;7.7;;;;;;;-2.09;100;96280.25;;;;
2021/03/06 03:19:35;;;;;;;15.25;7.7;;;;;;;-2.09;100;96280.25;;;;
2021/03/06 03:20:42;;;;;;;15.25;7.7;;;;;;;-2.09;100;96280.25;;;;
2021/03/06 03:21:48;;;;;;;15.25;7.7;;;;;;;-2.09;100;96280.25;;;;
2021/03/06 03:22:53;;;;;;;15.25;7.7;;;;;;;-2.09;100;96280.25;;;;
2021/03/06 03:23:59;;;;;;;15.25;7.7;;;;;;;-2.09;100;96280.25;;;;
2021/03/06 03:25:05;;;;;;;15.25;7.7;;;;;;;-2.09;100;96280.25;;;;
2021/03/06 03:26:08;;;;;;;15.25;7.7;;;;;;;-2.09;100;96280.25;;;;
2021/03/06 03:27:10;;;;;;;15.25;7.7;;;;;;;-2.09;100;96280.25;;;;
2021/03/06 03:28:11;;;;;;;11.85;7;;;;;;;-2.27;100;96289.79;;;;
2021/03/06 03:29:13;;;;;;;11.85;7;;;;;;;-2.27;100;96289.79;;;;
2021/03/06 03:30:15;;;;;;;11.85;7;;;;;;;-2.27;100;96289.79;;;;
2021/03/06 03:31:19;;;;;;;11.85;7;;;;;;;-2.27;100;96289.79;;;;
2021/03/06 03:32:23;;;;;;;11.85;7;;;;;;;-2.27;100;96289.79;;;;
2021/03/06 03:33:25;;;;;;;11.85;7;;;;;;;-2.27;100;96289.79;;;;
2021/03/06 03:34:27;;;;;;;11.85;7;;;;;;;-2.27;100;96289.79;;;;
2021/03/06 03:35:28;;;;;;;11.85;7;;;;;;;-2.27;100;96289.79;;;;
2021/03/06 03:36:31;;;;;;;11.85;7;;;;;;;-2.27;100;96289.79;;;;
2021/03/06 03:37:33;;;;;;;11.85;7;;;;;;;-2.27;100;96289.79;;;;
2021/03/06 03:38:35;;;;;;;13.75;7.599999;;;;;;;-2.48;100;96288.59;;;;
2021/03/06 03:39:36;;;;;;;13.75;7.599999;;;;;;;-2.48;100;96288.59;;;;
2021/03/06 03:40:38;;;;;;;13.75;7.599999;;;;;;;-2.48;100;96288.59;;;;
2021/03/06 03:41:40;;;;;;;13.75;7.599999;;;;;;;-2.48;100;96288.59;;;;
2021/03/06 03:42:40;;;;;;;13.75;7.599999;;;;;;;-2.48;100;96288.59;;;;
2021/03/06 03:43:41;;;;;;;13.75;7.599999;;;;;;;-2.48;100;96288.59;;;;
2021/03/06 03:44:42;;;;;;;13.75;7.599999;;;;;;;-2.48;100;96288.59;;;;
2021/03/06 03:45:43;;;;;;;13.75;7.599999;;;;;;;-2.48;100;96288.59;;;;
2021/03/06 03:46:44;;;;;;;13.75;7.599999;;;;;;;-2.48;100;96288.59;;;;
2021/03/06 03:47:45;;;;;;;13.75;7.599999;;;;;;;-2.48;100;96288.59;;;;
2021/03/06 03:48:46;;;;;;;11.5;6.799999;;;;;;;-2.68;100;96277.48;;;;
2021/03/06 03:49:47;;;;;;;11.5;6.799999;;;;;;;-2.68;100;96277.48;;;;
2021/03/06 03:50:47;;;;;;;11.5;6.799999;;;;;;;-2.68;100;96277.48;;;;
2021/03/06 03:51:48;;;;;;;11.5;6.799999;;;;;;;-2.68;100;96277.48;;;;
2021/03/06 03:52:49;;;;;;;11.5;6.799999;;;;;;;-2.68;100;96277.48;;;;
2021/03/06 03:53:50;;;;;;;11.5;6.799999;;;;;;;-2.68;100;96277.48;;;;
2021/03/06 03:54:51;;;;;;;11.5;6.799999;;;;;;;-2.68;100;96277.48;;;;
2021/03/06 03:55:52;;;;;;;11.5;6.799999;;;;;;;-2.68;100;96277.48;;;;
2021/03/06 03:56:53;;;;;;;11.5;6.799999;;;;;;;-2.68;100;96277.48;;;;
2021/03/06 03:57:54;;;;;;;11.5;6.799999;;;;;;;-2.68;100;96277.48;;;;
2021/03/06 03:58:55;;;;;;;11.5;6.799999;;;;;;;-2.68;100;96277.48;;;;
2021/03/06 03:59:55;;;;;;;11.95;7.85;;;;;;;-2.83;100;96269.14;;;;
2021/03/06 04:00:56;;;;;;;11.95;7.85;;;;;;;-2.83;100;96269.14;;;;
2021/03/06 04:01:57;;;;;;;11.95;7.85;;;;;;;-2.83;100;96269.14;;;;
2021/03/06 04:02:57;;;;;;;11.95;7.85;;;;;;;-2.83;100;96269.14;;;;
2021/03/06 04:04:01;;;;;;;11.95;7.85;;;;;;;-2.83;100;96269.14;;;;
2021/03/06 04:05:02;;;;;;;11.95;7.85;;;;;;;-2.83;100;96269.14;;;;
2021/03/06 04:06:04;;;;;;;11.95;7.85;;;;;;;-2.83;100;96269.14;;;;
2021/03/06 04:07:05;;;;;;;11.95;7.85;;;;;;;-2.83;100;96269.14;;;;
2021/03/06 04:08:06;;;;;;;11.95;7.85;;;;;;;-2.83;100;96269.14;;;;
2021/03/06 04:09:07;;;;;;;11.95;7.85;;;;;;;-2.83;100;96269.14;;;;
2021/03/06 04:10:07;;;;;;;15.25;8.100001;;;;;;;-3;100;96279.8;;;;
2021/03/06 04:11:09;;;;;;;15.25;8.100001;;;;;;;-3;100;96279.8;;;;
2021/03/06 04:12:10;;;;;;;15.25;8.100001;;;;;;;-3;100;96279.8;;;;
2021/03/06 04:13:10;;;;;;;15.25;8.100001;;;;;;;-3;100;96279.8;;;;
2021/03/06 04:14:11;;;;;;;15.25;8.100001;;;;;;;-3;100;96279.8;;;;
2021/03/06 04:15:11;;;;;;;15.25;8.100001;;;;;;;-3;100;96279.8;;;;
2021/03/06 04:16:13;;;;;;;15.25;8.100001;;;;;;;-3;100;96279.8;;;;
2021/03/06 04:17:14;;;;;;;15.25;8.100001;;;;;;;-3;100;96279.8;;;;
2021/03/06 04:18:14;;;;;;;15.25;8.100001;;;;;;;-3;100;96279.8;;;;
2021/03/06 04:19:15;;;;;;;15.25;8.100001;;;;;;;-3;100;96279.8;;;;
2021/03/06 04:20:15;;;;;;;15.25;8.100001;;;;;;;-3;100;96279.8;;;;
2021/03/06 04:21:19;;;;;;;11.35;7.349999;;;;;;;-3.13;100;96291.03;;;;
2021/03/06 04:22:20;;;;;;;11.35;7.349999;;;;;;;-3.13;100;96291.03;;;;
2021/03/06 04:23:20;;;;;;;11.35;7.349999;;;;;;;-3.13;100;96291.03;;;;
2021/03/06 04:24:21;;;;;;;11.35;7.349999;;;;;;;-3.13;100;96291.03;;;;
2021/03/06 04:25:22;;;;;;;11.35;7.349999;;;;;;;-3.13;100;96291.03;;;;
2021/03/06 04:26:22;;;;;;;11.35;7.349999;;;;;;;-3.13;100;96291.03;;;;
2021/03/06 04:27:23;;;;;;;11.35;7.349999;;;;;;;-3.13;100;96291.03;;;;
2021/03/06 04:28:24;;;;;;;11.35;7.349999;;;;;;;-3.13;100;96291.03;;;;
2021/03/06 04:29:25;;;;;;;11.35;7.349999;;;;;;;-3.13;100;96291.03;;;;
2021/03/06 04:30:25;;;;;;;11.35;7.349999;;;;;;;-3.13;100;96291.03;;;;
2021/03/06 04:31:26;;;;;;;13.55;8.349998;;;;;;;-3.33;100;96297.55;;;;
2021/03/06 04:32:27;;;;;;;13.55;8.349998;;;;;;;-3.33;100;96297.55;;;;
2021/03/06 04:33:27;;;;;;;13.55;8.349998;;;;;;;-3.33;100;96297.55;;;;
2021/03/06 04:34:28;;;;;;;13.55;8.349998;;;;;;;-3.33;100;96297.55;;;;
2021/03/06 04:35:28;;;;;;;13.55;8.349998;;;;;;;-3.33;100;96297.55;;;;
2021/03/06 04:36:29;;;;;;;13.55;8.349998;;;;;;;-3.33;100;96297.55;;;;
2021/03/06 04:37:29;;;;;;;13.55;8.349998;;;;;;;-3.33;100;96297.55;;;;
2021/03/06 04:38:30;;;;;;;13.55;8.349998;;;;;;;-3.33;100;96297.55;;;;
2021/03/06 04:39:30;;;;;;;13.55;8.349998;;;;;;;-3.33;100;96297.55;;;;
2021/03/06 04:40:31;;;;;;;13.55;8.349998;;;;;;;-3.33;100;96297.55;;;;
2021/03/06 04:41:32;;;;;;;13.55;8.349998;;;;;;;-3.33;100;96297.55;;;;
2021/03/06 04:42:33;;;;;;;13.7;8.599999;;;;;;;-3.47;100;96310.63;;;;
2021/03/06 04:43:33;;;;;;;13.7;8.599999;;;;;;;-3.47;100;96310.63;;;;
2021/03/06 04:44:34;;;;;;;13.7;8.599999;;;;;;;-3.47;100;96310.63;;;;
2021/03/06 04:45:34;;;;;;;13.7;8.599999;;;;;;;-3.47;100;96310.63;;;;
2021/03/06 04:46:35;;;;;;;13.7;8.599999;;;;;;;-3.47;100;96310.63;;;;
2021/03/06 04:47:35;;;;;;;13.7;8.599999;;;;;;;-3.47;100;96310.63;;;;
2021/03/06 04:48:39;;;;;;;13.7;8.599999;;;;;;;-3.47;100;96310.63;;;;
2021/03/06 04:49:40;;;;;;;13.7;8.599999;;;;;;;-3.47;100;96310.63;;;;
2021/03/06 04:50:40;;;;;;;13.7;8.599999;;;;;;;-3.47;100;96310.63;;;;
2021/03/06 04:51:41;;;;;;;13.7;8.599999;;;;;;;-3.47;100;96310.63;;;;
2021/03/06 04:52:41;;;;;;;13.7;8.599999;;;;;;;-3.47;100;96310.63;;;;
2021/03/06 04:53:42;;;;;;;16.4;9;;;;;;;-3.58;100;96314.62;;;;
2021/03/06 04:54:42;;;;;;;16.4;9;;;;;;;-3.58;100;96314.62;;;;
2021/03/06 04:55:43;;;;;;;16.4;9;;;;;;;-3.58;100;96314.62;;;;
2021/03/06 04:56:44;;;;;;;16.4;9;;;;;;;-3.58;100;96314.62;;;;
2021/03/06 04:57:44;;;;;;;16.4;9;;;;;;;-3.58;100;96314.62;;;;
2021/03/06 04:58:45;;;;;;;16.4;9;;;;;;;-3.58;100;96314.62;;;;
2021/03/06 04:59:46;;;;;;;16.4;9;;;;;;;-3.58;100;96314.62;;;;
2021/03/06 05:00:46;;;;;;;16.4;9;;;;;;;-3.58;100;96314.62;;;;
2021/03/06 05:01:47;;;;;;;16.4;9;;;;;;;-3.58;100;96314.62;;;;
2021/03/06 05:02:48;;;;;;;16.4;9;;;;;;;-3.58;100;96314.62;;;;
2021/03/06 05:03:49;;;;;;;14.9;8.95;;;;;;;-3.58;100;96315.05;;;;
2021/03/06 05:04:49;;;;;;;14.9;8.95;;;;;;;-3.58;100;96315.05;;;;
2021/03/06 05:05:50;;;;;;;14.9;8.95;;;;;;;-3.58;100;96315.05;;;;
2021/03/06 05:06:50;;;;;;;14.9;8.95;;;;;;;-3.58;100;96315.05;;;;
2021/03/06 05:07:51;;;;;;;14.9;8.95;;;;;;;-3.58;100;96315.05;;;;
2021/03/06 05:08:51;;;;;;;14.9;8.95;;;;;;;-3.58;100;96315.05;;;;
2021/03/06 05:09:52;;;;;;;14.9;8.95;;;;;;;-3.58;100;96315.05;;;;
2021/03/06 05:10:52;;;;;;;14.9;8.95;;;;;;;-3.58;100;96315.05;;;;
2021/03/06 05:11:53;;;;;;;14.9;8.95;;;;;;;-3.58;100;96315.05;;;;
2021/03/06 05:12:53;;;;;;;14.9;8.95;;;;;;;-3.58;100;96315.05;;;;
2021/03/06 05:13:54;;;;;;;14.9;8.95;;;;;;;-3.58;100;96315.05;;;;
2021/03/06 05:14:54;;;;;;;16.05;9.35;;;;;;;-3.58;100;96314.62;;;;
2021/03/06 05:15:55;;;;;;;16.05;9.35;;;;;;;-3.58;100;96314.62;;;;
2021/03/06 05:16:55;;;;;;;16.05;9.35;;;;;;;-3.58;100;96314.62;;;;
2021/03/06 05:17:56;;;;;;;16.05;9.35;;;;;;;-3.58;100;96314.62;;;;
2021/03/06 05:18:58;;;;;;;16.05;9.35;;;;;;;-3.58;100;96314.62;;;;
2021/03/06 05:19:59;;;;;;;16.05;9.35;;;;;;;-3.58;100;96314.62;;;;
2021/03/06 05:20:59;;;;;;;16.05;9.35;;;;;;;-3.58;100;96314.62;;;;
2021/03/06 05:22:00;;;;;;;16.05;9.35;;;;;;;-3.58;100;96314.62;;;;
2021/03/06 05:23:00;;;;;;;16.05;9.35;;;;;;;-3.58;100;96314.62;;;;
2021/03/06 05:24:01;;;;;;;16.05;9.35;;;;;;;-3.58;100;96314.62;;;;
2021/03/06 05:25:02;;;;;;;17.35;9.700001;;;;;;;-3.63;100;96321.19;;;;
2021/03/06 05:26:03;;;;;;;17.35;9.700001;;;;;;;-3.63;100;96321.19;;;;
2021/03/06 05:27:04;;;;;;;17.35;9.700001;;;;;;;-3.63;100;96321.19;;;;
2021/03/06 05:28:05;;;;;;;17.35;9.700001;;;;;;;-3.63;100;96321.19;;;;
2021/03/06 05:29:05;;;;;;;17.35;9.700001;;;;;;;-3.63;100;96321.19;;;;
2021/03/06 05:30:06;;;;;;;17.35;9.700001;;;;;;;-3.63;100;96321.19;;;;
2021/03/06 05:31:08;;;;;;;17.35;9.700001;;;;;;;-3.63;100;96321.19;;;;
2021/03/06 05:32:08;;;;;;;17.35;9.700001;;;;;;;-3.63;100;96321.19;;;;
2021/03/06 05:33:09;;;;;;;17.35;9.700001;;;;;;;-3.63;100;96321.19;;;;
2021/03/06 05:34:09;;;;;;;17.35;9.700001;;;;;;;-3.63;100;96321.19;;;;
2021/03/06 05:35:10;;;;;;;17.35;9.700001;;;;;;;-3.63;100;96321.19;;;;
2021/03/06 05:36:11;;;;;;;17.65;8.75;;;;;;;-3.68;100;96318.98;;;;
2021/03/06 05:37:11;;;;;;;17.65;8.75;;;;;;;-3.68;100;96318.98;;;;
2021/03/06 05:38:12;;;;;;;17.65;8.75;;;;;;;-3.68;100;96318.98;;;;
2021/03/06 05:39:12;;;;;;;17.65;8.75;;;;;;;-3.68;100;96318.98;;;;
2021/03/06 05:40:13;;;;;;;17.65;8.75;;;;;;;-3.68;100;96318.98;;;;
2021/03/06 05:41:14;;;;;;;17.65;8.75;;;;;;;-3.68;100;96318.98;;;;
2021/03/06 05:42:19;;;;;;;17.65;8.75;;;;;;;-3.68;100;96318.98;;;;
2021/03/06 05:43:19;;;;;;;17.65;8.75;;;;;;;-3.68;100;96318.98;;;;
2021/03/06 05:44:20;;;;;;;17.65;8.75;;;;;;;-3.68;100;96318.98;;;;
2021/03/06 05:45:21;;;;;;;17.65;8.75;;;;;;;-3.68;100;96318.98;;;;
2021/03/06 05:46:22;;;;;;;15.35;9.200002;;;;;;;-3.71;100;96315.71;;;;
2021/03/06 05:47:23;;;;;;;15.35;9.200002;;;;;;;-3.71;100;96315.71;;;;
2021/03/06 05:48:23;;;;;;;15.35;9.200002;;;;;;;-3.71;100;96315.71;;;;
2021/03/06 05:49:24;;;;;;;15.35;9.200002;;;;;;;-3.71;100;96315.71;;;;
2021/03/06 05:50:24;;;;;;;15.35;9.200002;;;;;;;-3.71;100;96315.71;;;;
2021/03/06 05:51:25;;;;;;;15.35;9.200002;;;;;;;-3.71;100;96315.71;;;;
2021/03/06 05:52:27;;;;;;;15.35;9.200002;;;;;;;-3.71;100;96315.71;;;;
2021/03/06 05:53:28;;;;;;;15.35;9.200002;;;;;;;-3.71;100;96315.71;;;;
2021/03/06 05:54:31;;;;;;;15.35;9.200002;;;;;;;-3.71;100;96315.71;;;;
2021/03/06 05:55:34;;;;;;;15.35;9.200002;;;;;;;-3.71;100;96315.71;;;;
2021/03/06 05:56:37;;;;;;;15.35;9.200002;;;;;;;-3.71;100;96315.71;;;;
2021/03/06 05:57:39;;;;;;;16;9.4;;;;;;;-3.74;100;96316.44;;;;
2021/03/06 05:58:40;;;;;;;16;9.4;;;;;;;-3.74;100;96316.44;;;;